Time;durP1;ratioP1;P1;durP2;ratioP2;P2;SDS_P1;SDS_P2;PMS_P1;PMS_P2;Temp;Humidity;BMP_temperature;BMP_pressure;BME280_temperature;BME280_humidity;BME280_pressure;Samples;Min_cycle;Max_cycle;Signal;HPM_P1;HPM_P2
2022/03/14 00:00:22;;;;;;;2.30;2.00;;;9.50;68.60;;;;;;6348007;22;20327;-78
2022/03/14 00:02:48;;;;;;;0.13;0.13;;;9.50;68.50;;;;;;6337713;22;20332;-78
2022/03/14 00:05:15;;;;;;;1.05;0.98;;;9.50;68.60;;;;;;6337839;22;20011;-78
2022/03/14 00:07:50;;;;;;;1.08;0.98;;;9.50;69.00;;;;;;6348093;22;20009;-77
2022/03/14 00:10:17;;;;;;;2.38;2.05;;;9.60;69.40;;;;;;6347890;22;20010;-79
2022/03/14 00:12:50;;;;;;;2.30;2.15;;;9.70;68.50;;;;;;6337917;22;20010;-79
2022/03/14 00:15:16;;;;;;;1.45;1.35;;;9.80;67.30;;;;;;6347800;22;19999;-79
2022/03/14 00:17:45;;;;;;;0.30;0.30;;;9.80;66.90;;;;;;6309881;22;20066;-78
2022/03/14 00:20:13;;;;;;;0.52;0.52;;;9.90;66.50;;;;;;6347703;22;20347;-78
2022/03/14 00:22:41;;;;;;;1.52;1.42;;;10.00;66.20;;;;;;6347663;22;20096;-79
2022/03/14 00:25:09;;;;;;;0.35;0.35;;;9.90;66.20;;;;;;6310021;22;20010;-79
2022/03/14 00:27:36;;;;;;;2.92;1.63;;;10.00;66.00;;;;;;6320185;22;20011;-79
2022/03/14 00:30:11;;;;;;;1.27;1.20;;;10.10;66.00;;;;;;6337374;22;20048;-79
2022/03/14 00:32:39;;;;;;;0.80;0.77;;;10.10;65.90;;;;;;6347652;22;20023;-78
2022/03/14 00:35:07;;;;;;;1.25;1.20;;;10.10;66.00;;;;;;6347569;22;20506;-78
2022/03/14 00:37:34;;;;;;;1.20;1.10;;;10.00;66.20;;;;;;6347742;22;20022;-78
2022/03/14 00:40:01;;;;;;;1.40;1.30;;;10.10;66.30;;;;;;6347458;22;20010;-78
2022/03/14 00:42:27;;;;;;;2.08;1.65;;;10.10;66.80;;;;;;6347587;22;20029;-78
2022/03/14 00:44:54;;;;;;;6.43;1.55;;;10.10;67.30;;;;;;6347695;22;20275;-79
2022/03/14 00:47:21;;;;;;;0.38;0.38;;;10.00;67.60;;;;;;6347354;22;20017;-79
2022/03/14 00:49:47;;;;;;;3.10;0.77;;;9.80;68.30;;;;;;6347684;22;20014;-79
2022/03/14 00:52:13;;;;;;;0.70;0.70;;;9.90;69.00;;;;;;6346950;22;20439;-79
2022/03/14 00:54:39;;;;;;;2.13;1.25;;;9.90;68.80;;;;;;6337704;22;20013;-80
2022/03/14 00:57:05;;;;;;;1.67;1.58;;;9.90;68.10;;;;;;6337419;22;20042;-80
2022/03/14 00:59:30;;;;;;;3.10;1.27;;;9.90;68.00;;;;;;6319800;22;20009;-80
2022/03/14 01:01:56;;;;;;;0.30;0.30;;;9.80;68.50;;;;;;6347368;22;20094;-79
2022/03/14 01:04:22;;;;;;;1.17;0.93;;;9.50;70.10;;;;;;6347475;22;20454;-80
2022/03/14 01:06:48;;;;;;;2.17;1.90;;;9.60;69.80;;;;;;6347519;22;20003;-79
2022/03/14 01:09:15;;;;;;;1.20;1.13;;;9.60;69.30;;;;;;6347473;22;20014;-79
2022/03/14 01:11:44;;;;;;;0.47;0.47;;;9.60;70.40;;;;;;6266996;22;20003;-79
2022/03/14 01:14:11;;;;;;;1.60;1.50;;;9.50;70.30;;;;;;6347276;22;20007;-79
2022/03/14 01:16:38;;;;;;;1.40;1.25;;;9.80;71.50;;;;;;6347330;22;20064;-80
2022/03/14 01:19:05;;;;;;;11.65;3.25;;;10.00;72.30;;;;;;6319801;22;20082;-80
2022/03/14 01:21:31;;;;;;;1.20;1.10;;;10.10;72.30;;;;;;6309571;22;20003;-80
2022/03/14 01:23:58;;;;;;;1.75;1.30;;;10.10;72.40;;;;;;6347344;22;20007;-79
2022/03/14 01:26:24;;;;;;;4.22;1.15;;;10.20;81.10;;;;;;6309579;22;20096;-79
2022/03/14 01:28:50;;;;;;;0.38;0.38;;;10.50;83.30;;;;;;6337355;22;20007;-79
2022/03/14 01:31:17;;;;;;;0.20;0.20;;;10.90;92.90;;;;;;6347182;22;20473;-79
2022/03/14 01:33:43;;;;;;;0.10;0.10;;;11.10;95.60;;;;;;6347291;22;20094;-78
2022/03/14 01:36:09;;;;;;;6.05;2.40;;;11.20;99.90;;;;;;6347019;22;20377;-78
2022/03/14 01:38:35;;;;;;;1.55;0.63;;;11.30;99.90;;;;;;6347113;22;20081;-79
2022/03/14 01:41:00;;;;;;;0.93;0.60;;;11.20;99.90;;;;;;6319144;22;20424;-79
2022/03/14 01:43:26;;;;;;;0.75;0.75;;;11.20;99.90;;;;;;6347114;22;20003;-79
2022/03/14 01:45:58;;;;;;;51.65;3.45;;;11.20;99.90;;;;;;6347204;22;20010;-78
2022/03/14 01:48:25;;;;;;;0.17;0.17;;;11.20;99.90;;;;;;6346851;22;20011;-78
2022/03/14 01:50:54;;;;;;;0.10;0.10;;;11.20;99.90;;;;;;6337241;22;20014;-78
2022/03/14 01:53:20;;;;;;;0.63;0.63;;;11.20;99.90;;;;;;6346794;22;20019;-78
2022/03/14 01:55:48;;;;;;;0.10;0.10;;;11.00;99.90;;;;;;6337110;22;20053;-79
2022/03/14 01:58:15;;;;;;;0.00;0.00;;;10.90;99.90;;;;;;6336988;22;20084;-78
2022/03/14 02:00:43;;;;;;;3.92;0.82;;;10.70;99.90;;;;;;6347158;22;20003;-79
2022/03/14 02:03:09;;;;;;;0.28;0.20;;;10.60;99.90;;;;;;6348427;22;20365;-79
2022/03/14 02:05:36;;;;;;;0.00;0.00;;;10.70;99.90;;;;;;6349380;22;20083;-78
2022/03/14 02:08:07;;;;;;;0.00;0.00;;;10.60;99.90;;;;;;6348935;22;20057;-79
2022/03/14 02:10:34;;;;;;;0.00;0.00;;;10.60;99.90;;;;;;6295995;22;20006;-79
2022/03/14 02:13:10;;;;;;;0.00;0.00;;;10.60;99.90;;;;;;6321694;22;20077;-79
2022/03/14 02:15:38;;;;;;;0.00;0.00;;;10.50;99.90;;;;;;6349320;22;20085;-79
2022/03/14 02:18:04;;;;;;;0.00;0.00;;;10.40;99.90;;;;;;6338819;22;20003;-78
2022/03/14 02:20:30;;;;;;;0.00;0.00;;;10.30;99.90;;;;;;6349085;22;20013;-79
2022/03/14 02:22:55;;;;;;;0.00;0.00;;;10.20;99.90;;;;;;6348835;22;20010;-77
2022/03/14 02:25:21;;;;;;;0.43;0.43;;;10.00;99.90;;;;;;6338827;22;20082;-79
2022/03/14 02:27:48;;;;;;;0.00;0.00;;;9.90;99.90;;;;;;6349001;22;20009;-79
2022/03/14 02:30:13;;;;;;;0.10;0.10;;;9.80;99.90;;;;;;6338678;22;20006;-79
2022/03/14 02:32:41;;;;;;;0.00;0.00;;;9.70;99.90;;;;;;6349006;22;20328;-78
2022/03/14 02:35:08;;;;;;;1.75;0.85;;;9.50;99.90;;;;;;6338681;22;20011;-78
2022/03/14 02:37:35;;;;;;;0.00;0.00;;;9.50;99.90;;;;;;6321674;22;19999;-78
2022/03/14 02:40:01;;;;;;;0.00;0.00;;;9.40;99.90;;;;;;6348845;22;20011;-76
2022/03/14 02:42:27;;;;;;;0.00;0.00;;;9.30;99.90;;;;;;6348634;22;20094;-75
2022/03/14 02:44:53;;;;;;;0.00;0.00;;;9.30;99.90;;;;;;6349004;22;20030;-76
2022/03/14 02:47:19;;;;;;;0.10;0.10;;;9.20;99.90;;;;;;6348723;22;20014;-79
2022/03/14 02:49:45;;;;;;;0.00;0.00;;;9.10;99.90;;;;;;6348778;22;20025;-80
2022/03/14 02:52:11;;;;;;;0.00;0.00;;;9.00;99.90;;;;;;6348457;22;20018;-81
2022/03/14 02:54:37;;;;;;;0.00;0.00;;;9.10;99.90;;;;;;6348540;22;20014;-80
2022/03/14 02:57:05;;;;;;;0.00;0.00;;;9.10;99.90;;;;;;6348805;22;20435;-80
2022/03/14 02:59:32;;;;;;;0.10;0.10;;;9.00;99.90;;;;;;6348618;22;20006;-80
2022/03/14 03:01:58;;;;;;;0.00;0.00;;;9.00;99.90;;;;;;6321049;22;20007;-80
2022/03/14 03:04:24;;;;;;;0.00;0.00;;;9.00;99.90;;;;;;6338308;22;20419;-81
2022/03/14 03:06:49;;;;;;;0.00;0.00;;;8.90;99.90;;;;;;6348717;22;20014;-80
2022/03/14 03:09:15;;;;;;;0.00;0.00;;;8.90;99.90;;;;;;6348563;22;20014;-80
2022/03/14 03:11:41;;;;;;;0.00;0.00;;;8.90;99.90;;;;;;6348523;22;20002;-79
2022/03/14 03:14:09;;;;;;;0.00;0.00;;;8.80;99.90;;;;;;6347962;22;20060;-79
2022/03/14 03:16:35;;;;;;;0.00;0.00;;;8.80;99.90;;;;;;6348304;22;20007;-79
2022/03/14 03:19:03;;;;;;;0.17;0.17;;;8.80;99.90;;;;;;6348536;22;20011;-79
2022/03/14 03:21:28;;;;;;;0.00;0.00;;;8.70;99.90;;;;;;6320994;22;20002;-79
2022/03/14 03:23:54;;;;;;;0.00;0.00;;;8.70;99.90;;;;;;6310790;22;20021;-79
2022/03/14 03:26:21;;;;;;;0.00;0.00;;;8.60;99.90;;;;;;6320929;22;20013;-78
2022/03/14 03:28:47;;;;;;;0.10;0.10;;;8.60;99.90;;;;;;6348468;22;20018;-78
2022/03/14 03:31:17;;;;;;;0.00;0.00;;;8.50;99.90;;;;;;6348080;22;19999;-77
2022/03/14 03:33:44;;;;;;;0.47;0.30;;;8.60;99.90;;;;;;6348372;22;20470;-78
2022/03/14 03:36:10;;;;;;;0.10;0.10;;;8.50;99.90;;;;;;6338093;22;20420;-78
2022/03/14 03:38:36;;;;;;;0.00;0.00;;;8.50;99.90;;;;;;6320810;22;20018;-77
2022/03/14 03:41:03;;;;;;;0.00;0.00;;;8.50;99.90;;;;;;6348168;22;20459;-77
2022/03/14 03:43:29;;;;;;;0.17;0.17;;;8.40;99.90;;;;;;6319314;22;20015;-77
2022/03/14 03:45:55;;;;;;;0.00;0.00;;;8.40;99.90;;;;;;6310310;22;20019;-77
2022/03/14 03:48:22;;;;;;;0.00;0.00;;;8.40;99.90;;;;;;6337924;22;20002;-76
2022/03/14 03:50:48;;;;;;;0.00;0.00;;;8.40;99.90;;;;;;6310649;22;20014;-75
2022/03/14 03:53:14;;;;;;;0.10;0.10;;;8.40;99.90;;;;;;6347766;22;20371;-76
2022/03/14 03:55:39;;;;;;;0.00;0.00;;;8.40;99.90;;;;;;6337902;22;20018;-76
2022/03/14 03:58:05;;;;;;;0.20;0.20;;;8.40;99.90;;;;;;6348042;22;20332;-76
2022/03/14 04:00:31;;;;;;;0.00;0.00;;;8.40;99.90;;;;;;6320543;22;20030;-75
2022/03/14 04:02:58;;;;;;;0.00;0.00;;;8.40;99.90;;;;;;6348083;22;20003;-76
2022/03/14 04:05:27;;;;;;;0.15;0.15;;;8.40;99.90;;;;;;6347836;22;20007;-77
2022/03/14 04:08:02;;;;;;;0.00;0.00;;;8.40;99.90;;;;;;6337752;22;20011;-77
2022/03/14 04:10:29;;;;;;;0.00;0.00;;;8.40;99.90;;;;;;6337958;22;20420;-77
2022/03/14 04:12:59;;;;;;;0.20;0.20;;;8.50;99.90;;;;;;6338055;22;20010;-78
2022/03/14 04:15:27;;;;;;;0.00;0.00;;;8.50;99.90;;;;;;6337864;22;20072;-78
2022/03/14 04:17:59;;;;;;;0.00;0.00;;;8.50;99.90;;;;;;6347912;22;20068;-77
2022/03/14 04:20:25;;;;;;;0.00;0.00;;;8.50;99.90;;;;;;6311522;22;20336;-77
2022/03/14 04:22:52;;;;;;;0.00;0.00;;;8.50;99.90;;;;;;6347707;22;20011;-77
2022/03/14 04:25:17;;;;;;;0.00;0.00;;;8.50;99.90;;;;;;6347287;22;20021;-77
2022/03/14 04:27:43;;;;;;;0.00;0.00;;;8.50;99.90;;;;;;6337472;22;20347;-77
2022/03/14 04:30:10;;;;;;;0.40;0.25;;;8.50;99.90;;;;;;6347767;22;20007;-77
2022/03/14 04:32:36;;;;;;;0.00;0.00;;;8.50;99.90;;;;;;6347847;22;20003;-76
2022/03/14 04:35:02;;;;;;;0.03;0.03;;;8.50;99.90;;;;;;6347693;22;20549;-76
2022/03/14 04:37:28;;;;;;;0.20;0.20;;;8.40;99.90;;;;;;6337646;22;20011;-77
2022/03/14 04:39:54;;;;;;;0.00;0.00;;;8.40;99.90;;;;;;6337664;22;19998;-77
2022/03/14 04:42:21;;;;;;;0.00;0.00;;;8.50;99.90;;;;;;6309460;22;20075;-77
2022/03/14 04:44:49;;;;;;;0.00;0.00;;;8.40;99.90;;;;;;6337702;22;20006;-77
2022/03/14 04:47:18;;;;;;;0.00;0.00;;;8.40;99.90;;;;;;6337549;22;20022;-78
2022/03/14 04:49:44;;;;;;;0.00;0.00;;;8.40;99.90;;;;;;6347643;22;20007;-78
2022/03/14 04:52:10;;;;;;;0.45;0.43;;;8.30;99.90;;;;;;6347002;22;20057;-78
2022/03/14 04:54:36;;;;;;;0.00;0.00;;;8.40;99.90;;;;;;6347498;22;20014;-78
2022/03/14 04:57:02;;;;;;;0.10;0.10;;;8.40;99.90;;;;;;6347818;22;20003;-78
2022/03/14 04:59:28;;;;;;;0.00;0.00;;;8.40;99.90;;;;;;6318735;22;20003;-80
2022/03/14 05:01:54;;;;;;;0.00;0.00;;;8.40;99.90;;;;;;6347303;22;20594;-78
2022/03/14 05:04:19;;;;;;;0.00;0.00;;;8.30;99.90;;;;;;6337332;22;20014;-70
2022/03/14 05:06:45;;;;;;;0.00;0.00;;;8.30;99.90;;;;;;6337238;22;20007;-71
2022/03/14 05:09:11;;;;;;;0.00;0.00;;;8.30;99.90;;;;;;6347187;22;20006;-78
2022/03/14 05:11:38;;;;;;;0.20;0.20;;;8.30;99.90;;;;;;6347328;22;20010;-74
2022/03/14 05:14:09;;;;;;;0.00;0.00;;;8.30;99.90;;;;;;6309376;22;20007;-77
2022/03/14 05:16:36;;;;;;;0.00;0.00;;;8.20;99.90;;;;;;6320360;22;20007;-75
2022/03/14 05:19:02;;;;;;;0.00;0.00;;;8.30;99.90;;;;;;6347166;22;20074;-74
2022/03/14 05:21:27;;;;;;;2.45;0.63;;;8.30;99.90;;;;;;6347077;22;20419;-72
2022/03/14 05:23:53;;;;;;;0.00;0.00;;;8.20;99.90;;;;;;6337140;22;20006;-72
2022/03/14 05:26:19;;;;;;;0.00;0.00;;;8.20;99.90;;;;;;6347152;22;20002;-73
2022/03/14 05:28:45;;;;;;;0.00;0.00;;;8.30;99.90;;;;;;6319323;22;20388;-77
2022/03/14 05:31:10;;;;;;;0.00;0.00;;;8.30;99.90;;;;;;6319488;22;20006;-74
2022/03/14 05:33:36;;;;;;;0.00;0.00;;;8.30;99.90;;;;;;6347445;22;20451;-74
2022/03/14 05:36:02;;;;;;;0.00;0.00;;;8.30;99.90;;;;;;6337155;22;20007;-73
2022/03/14 05:38:28;;;;;;;0.20;0.20;;;8.30;99.90;;;;;;6336780;22;20017;-73
2022/03/14 05:40:55;;;;;;;0.00;0.00;;;8.30;99.90;;;;;;6336804;22;20003;-73
2022/03/14 05:43:22;;;;;;;0.00;0.00;;;8.30;99.90;;;;;;6347424;22;20014;-70
2022/03/14 05:45:48;;;;;;;0.00;0.00;;;8.30;99.90;;;;;;6319051;22;20017;-72
2022/03/14 05:48:14;;;;;;;0.00;0.00;;;8.30;99.90;;;;;;6336535;22;20417;-71
2022/03/14 05:50:39;;;;;;;0.00;0.00;;;8.30;99.90;;;;;;6336762;22;20425;-73
2022/03/14 05:53:05;;;;;;;0.00;0.00;;;8.30;99.90;;;;;;6336505;22;20050;-73
2022/03/14 05:55:31;;;;;;;0.00;0.00;;;8.30;99.90;;;;;;6336846;22;20007;-73
2022/03/14 05:57:57;;;;;;;0.00;0.00;;;8.20;99.90;;;;;;6347095;22;19999;-74
2022/03/14 06:00:24;;;;;;;0.00;0.00;;;8.30;99.90;;;;;;6346722;22;20003;-73
2022/03/14 06:02:54;;;;;;;0.13;0.13;;;8.30;99.90;;;;;;6346826;22;20014;-73
2022/03/14 06:05:22;;;;;;;0.00;0.00;;;8.30;99.90;;;;;;6347327;22;20011;-73
2022/03/14 06:07:49;;;;;;;0.10;0.10;;;8.30;99.90;;;;;;6309852;22;20021;-73
2022/03/14 06:10:15;;;;;;;0.00;0.00;;;8.30;99.90;;;;;;6309511;22;20030;-73
2022/03/14 06:12:41;;;;;;;0.00;0.00;;;8.20;99.90;;;;;;6346960;22;20007;-73
2022/03/14 06:15:10;;;;;;;0.00;0.00;;;8.30;99.90;;;;;;6319492;22;20036;-73
2022/03/14 06:17:36;;;;;;;0.00;0.00;;;8.20;99.90;;;;;;6336599;22;20017;-73
2022/03/14 06:20:03;;;;;;;0.00;0.00;;;8.20;99.90;;;;;;6336940;22;20007;-72
2022/03/14 06:22:29;;;;;;;0.40;0.40;;;8.30;99.90;;;;;;6336244;22;20011;-74
2022/03/14 06:24:55;;;;;;;0.00;0.00;;;8.30;99.90;;;;;;6336376;22;20470;-73
2022/03/14 06:27:23;;;;;;;0.05;0.05;;;8.30;99.90;;;;;;6346497;22;20007;-68
2022/03/14 06:29:48;;;;;;;0.90;0.88;;;8.20;99.90;;;;;;6335970;22;20357;-73
2022/03/14 06:32:15;;;;;;;0.00;0.00;;;8.30;99.90;;;;;;6336383;22;20049;-73
2022/03/14 06:34:42;;;;;;;0.00;0.00;;;8.20;99.90;;;;;;6319262;22;19999;-73
2022/03/14 06:37:09;;;;;;;0.00;0.00;;;8.20;99.90;;;;;;6336594;22;20010;-73
2022/03/14 06:39:36;;;;;;;0.00;0.00;;;8.20;99.90;;;;;;6346695;22;20064;-75
2022/03/14 06:42:14;;;;;;;1.23;1.17;;;8.30;99.90;;;;;;6346204;22;20007;-73
2022/03/14 06:44:43;;;;;;;0.10;0.10;;;8.30;99.90;;;;;;6346962;22;20017;-74
2022/03/14 06:47:12;;;;;;;0.08;0.08;;;8.30;99.90;;;;;;6319381;22;20013;-74
2022/03/14 06:49:42;;;;;;;0.10;0.10;;;8.40;99.90;;;;;;6347957;22;20496;-74
2022/03/14 06:52:08;;;;;;;0.00;0.00;;;8.40;99.90;;;;;;6338081;22;20015;-73
2022/03/14 06:54:34;;;;;;;0.00;0.00;;;8.40;99.90;;;;;;6338216;22;20034;-74
2022/03/14 06:57:00;;;;;;;0.10;0.10;;;8.30;99.90;;;;;;6338801;22;20068;-73
2022/03/14 06:59:25;;;;;;;0.10;0.10;;;8.30;99.90;;;;;;6310723;22;20038;-73
2022/03/14 07:01:51;;;;;;;0.90;0.57;;;8.40;99.90;;;;;;6348520;22;20007;-73
2022/03/14 07:04:17;;;;;;;0.20;0.20;;;8.40;99.90;;;;;;6310514;22;20362;-73
2022/03/14 07:06:44;;;;;;;0.68;0.68;;;8.40;99.90;;;;;;6338230;22;20045;-73
2022/03/14 07:09:09;;;;;;;0.00;0.00;;;8.40;99.90;;;;;;6348482;22;20013;-74
2022/03/14 07:11:35;;;;;;;0.00;0.00;;;8.40;99.90;;;;;;6337976;22;20011;-74
2022/03/14 07:14:02;;;;;;;0.75;0.55;;;8.40;99.90;;;;;;6338069;22;20007;-74
2022/03/14 07:16:27;;;;;;;0.00;0.00;;;8.40;99.90;;;;;;6348198;22;20003;-73
2022/03/14 07:18:53;;;;;;;0.00;0.00;;;8.50;99.90;;;;;;6348436;22;20034;-74
2022/03/14 07:21:19;;;;;;;0.00;0.00;;;8.50;99.90;;;;;;6348362;22;20474;-74
2022/03/14 07:23:47;;;;;;;0.00;0.00;;;8.60;99.90;;;;;;6338205;22;20053;-74
2022/03/14 07:26:20;;;;;;;0.22;0.22;;;8.70;99.90;;;;;;6348551;22;20003;-73
2022/03/14 07:28:48;;;;;;;0.00;0.00;;;8.70;99.90;;;;;;6337881;22;20003;-74
2022/03/14 07:31:17;;;;;;;0.00;0.00;;;8.80;99.90;;;;;;6348220;22;20022;-73
2022/03/14 07:33:43;;;;;;;0.00;0.00;;;8.80;99.90;;;;;;6348319;22;20440;-73
2022/03/14 07:36:12;;;;;;;0.00;0.00;;;8.90;99.90;;;;;;6338072;22;20006;-73
2022/03/14 07:38:38;;;;;;;0.10;0.10;;;8.90;99.90;;;;;;6309879;22;20011;-74
2022/03/14 07:41:04;;;;;;;0.00;0.00;;;9.00;99.90;;;;;;6347889;22;20515;-73
2022/03/14 07:43:30;;;;;;;0.15;0.15;;;9.00;99.90;;;;;;6337425;22;20018;-74
2022/03/14 07:45:55;;;;;;;0.05;0.05;;;8.90;99.90;;;;;;6348132;22;20011;-74
2022/03/14 07:48:22;;;;;;;0.00;0.00;;;9.00;99.90;;;;;;6347935;22;20011;-74
2022/03/14 07:50:47;;;;;;;0.10;0.10;;;9.00;99.90;;;;;;6348089;22;20003;-73
2022/03/14 07:53:13;;;;;;;0.10;0.10;;;9.00;99.90;;;;;;6337524;22;20034;-74
2022/03/14 07:55:39;;;;;;;0.20;0.20;;;9.10;99.90;;;;;;6337906;22;20007;-73
2022/03/14 07:58:05;;;;;;;0.50;0.50;;;9.20;99.90;;;;;;6348126;22;20056;-73
2022/03/14 08:00:31;;;;;;;0.00;0.00;;;9.20;99.90;;;;;;6337552;22;20011;-73
2022/03/14 08:02:57;;;;;;;2.17;0.70;;;9.20;99.90;;;;;;6348077;22;20071;-73
2022/03/14 08:05:26;;;;;;;0.00;0.00;;;9.30;99.90;;;;;;6337570;22;20010;-73
2022/03/14 08:07:54;;;;;;;0.10;0.10;;;9.30;99.90;;;;;;6337820;22;20003;-74
2022/03/14 08:10:21;;;;;;;0.10;0.10;;;9.30;99.90;;;;;;6337753;22;20148;-73
2022/03/14 08:12:55;;;;;;;0.00;0.00;;;9.40;99.90;;;;;;6347581;22;20432;-73
2022/03/14 08:15:29;;;;;;;0.32;0.32;;;9.50;99.90;;;;;;6347875;22;20007;-74
2022/03/14 08:18:05;;;;;;;0.00;0.00;;;9.60;99.90;;;;;;6321336;22;20015;-74
2022/03/14 08:20:32;;;;;;;0.00;0.00;;;9.80;99.90;;;;;;6348005;22;20021;-74
2022/03/14 08:23:02;;;;;;;2.45;0.65;;;10.00;99.90;;;;;;6347475;22;20013;-73
2022/03/14 08:25:32;;;;;;;0.00;0.00;;;10.00;99.90;;;;;;6320737;22;20052;-73
2022/03/14 08:27:58;;;;;;;0.00;0.00;;;10.00;99.90;;;;;;6337369;22;20461;-73
2022/03/14 08:30:30;;;;;;;0.00;0.00;;;10.10;99.90;;;;;;6337561;22;20003;-73
2022/03/14 08:32:58;;;;;;;0.00;0.00;;;10.00;99.90;;;;;;6336458;22;20007;-74
2022/03/14 08:35:27;;;;;;;0.70;0.70;;;9.90;99.90;;;;;;6347768;22;20007;-74
2022/03/14 08:37:54;;;;;;;0.00;0.00;;;9.90;99.90;;;;;;6337628;22;20354;-73
2022/03/14 08:40:23;;;;;;;0.00;0.00;;;9.80;99.90;;;;;;6320034;22;20073;-73
2022/03/14 08:42:50;;;;;;;0.22;0.22;;;9.80;99.90;;;;;;6347530;22;20011;-72
2022/03/14 08:45:17;;;;;;;0.00;0.00;;;9.80;99.90;;;;;;6320166;22;20006;-74
2022/03/14 08:47:42;;;;;;;0.00;0.00;;;10.00;99.90;;;;;;6309588;22;20018;-71
2022/03/14 08:50:10;;;;;;;0.00;0.00;;;9.90;99.90;;;;;;6337582;22;20006;-75
2022/03/14 08:52:37;;;;;;;0.03;0.03;;;9.90;99.90;;;;;;6336843;22;20022;-75
2022/03/14 08:55:05;;;;;;;0.00;0.00;;;9.90;99.90;;;;;;6347555;22;20059;-75
2022/03/14 08:57:31;;;;;;;0.17;0.17;;;9.80;99.90;;;;;;6320017;22;20006;-75
2022/03/14 08:59:57;;;;;;;0.05;0.05;;;9.80;99.90;;;;;;6347345;22;20011;-74
2022/03/14 09:02:23;;;;;;;1.48;1.38;;;10.00;99.90;;;;;;6346965;22;20007;-74
2022/03/14 09:04:49;;;;;;;0.00;0.00;;;10.20;99.90;;;;;;6319717;22;20420;-74
2022/03/14 09:07:30;;;;;;;0.00;0.00;;;10.20;99.90;;;;;;6319643;22;20018;-75
2022/03/14 09:10:12;;;;;;;0.22;0.22;;;10.10;99.90;;;;;;6319891;22;20006;-75
2022/03/14 09:12:39;;;;;;;0.00;0.00;;;10.20;99.90;;;;;;6346905;22;20145;-77
2022/03/14 09:15:07;;;;;;;0.55;0.50;;;10.20;99.90;;;;;;6337174;22;20451;-77
2022/03/14 09:17:35;;;;;;;1.55;0.57;;;10.10;99.90;;;;;;6336981;22;20431;-77
2022/03/14 09:20:02;;;;;;;0.13;0.13;;;10.20;99.90;;;;;;6347171;22;20105;-77
2022/03/14 09:22:28;;;;;;;0.00;0.00;;;10.20;99.90;;;;;;6336822;22;20424;-77
2022/03/14 09:24:55;;;;;;;0.20;0.20;;;10.20;99.90;;;;;;6347209;22;20010;-76
2022/03/14 09:27:23;;;;;;;0.00;0.00;;;10.30;99.90;;;;;;6309267;22;20042;-76
2022/03/14 09:29:51;;;;;;;0.00;0.00;;;10.20;99.90;;;;;;6347032;22;20002;-76
2022/03/14 09:32:17;;;;;;;0.00;0.00;;;10.20;99.90;;;;;;6347219;22;20377;-77
2022/03/14 09:34:43;;;;;;;0.10;0.10;;;10.40;99.90;;;;;;6319436;22;20022;-78
2022/03/14 09:37:09;;;;;;;0.90;0.30;;;10.60;99.90;;;;;;6337189;22;20052;-77
2022/03/14 09:39:34;;;;;;;2.45;1.98;;;10.70;99.90;;;;;;6336916;22;20006;-78
2022/03/14 09:42:02;;;;;;;0.10;0.10;;;10.80;99.90;;;;;;6337090;22;20049;-78
2022/03/14 09:52:24;;;;;;;0.00;0.00;;;11.00;99.90;;;;;;6338360;22;20445;-76
2022/03/14 09:57:37;;;;;;;0.00;0.00;;;10.80;99.90;;;;;;6284759;22;20157;-74
2022/03/14 10:00:14;;;;;;;0.10;0.10;;;10.60;99.90;;;;;;6282121;22;20310;-75
2022/03/14 10:02:43;;;;;;;0.00;0.00;;;10.60;99.90;;;;;;6284696;22;20032;-75
2022/03/14 10:05:12;;;;;;;0.00;0.00;;;10.60;99.90;;;;;;6272911;22;20455;-75
2022/03/14 10:07:40;;;;;;;0.00;0.00;;;10.50;99.90;;;;;;6284708;22;20012;-74
2022/03/14 10:10:07;;;;;;;0.25;0.25;;;10.40;99.90;;;;;;6274468;22;20026;-74
2022/03/14 10:12:33;;;;;;;11.88;2.10;;;10.40;99.90;;;;;;6283083;22;20058;-74
2022/03/14 10:15:06;;;;;;;0.00;0.00;;;10.40;99.90;;;;;;6284432;22;20095;-73
2022/03/14 10:17:34;;;;;;;0.00;0.00;;;10.50;99.90;;;;;;6284213;22;20452;-73
2022/03/14 10:20:03;;;;;;;0.00;0.00;;;10.60;99.90;;;;;;6272421;22;20004;-73
2022/03/14 10:22:38;;;;;;;0.35;0.35;;;10.70;99.90;;;;;;6283695;22;20004;-73
2022/03/14 10:25:11;;;;;;;0.00;0.00;;;10.80;99.90;;;;;;6275044;22;20111;-74
2022/03/14 10:27:40;;;;;;;3.20;0.52;;;11.00;99.90;;;;;;6276271;22;20008;-74
2022/03/14 10:30:20;;;;;;;3.40;1.08;;;11.30;99.90;;;;;;6276341;22;20504;-74
2022/03/14 10:32:48;;;;;;;0.10;0.10;;;11.50;99.90;;;;;;6284909;22;20079;-73
2022/03/14 10:46:12;;;;;;;0.00;0.00;;;11.50;99.90;;;;;;6286489;22;20069;-72
2022/03/14 10:48:43;;;;;;;0.55;0.55;;;11.40;99.90;;;;;;6286363;22;20015;-71
2022/03/14 10:51:12;;;;;;;0.00;0.00;;;11.20;99.90;;;;;;6286417;22;20007;-70
2022/03/14 10:53:46;;;;;;;0.00;0.00;;;11.10;99.90;;;;;;6317271;22;20440;-70
2022/03/14 10:56:14;;;;;;;0.10;0.10;;;11.20;99.90;;;;;;6348209;22;20032;-72
2022/03/14 10:58:43;;;;;;;0.05;0.05;;;11.20;99.90;;;;;;6348247;22;20011;-73
2022/03/14 11:01:13;;;;;;;0.00;0.00;;;11.20;99.90;;;;;;6348256;22;20082;-74
2022/03/14 11:33:20;;;;;;;0.15;0.15;;;11.50;99.90;;;;;;6348410;22;20015;-72
2022/03/14 11:35:46;;;;;;;0.03;0.03;;;11.50;99.90;;;;;;6337971;22;20015;-70
2022/03/14 11:38:28;;;;;;;0.08;0.08;;;11.50;99.90;;;;;;6347716;22;19999;-73
2022/03/14 11:40:55;;;;;;;0.22;0.22;;;11.40;99.90;;;;;;6320683;22;20014;-70
2022/03/14 11:43:22;;;;;;;0.00;0.00;;;11.50;99.90;;;;;;6347940;22;20007;-71
2022/03/14 11:45:50;;;;;;;1.55;0.35;;;11.50;99.90;;;;;;6337679;22;19999;-72
2022/03/14 11:48:16;;;;;;;0.00;0.00;;;11.40;99.90;;;;;;6348267;22;20038;-70
2022/03/14 11:50:58;;;;;;;0.00;0.00;;;11.40;99.90;;;;;;6348285;22;20424;-80
2022/03/14 11:53:28;;;;;;;0.00;0.00;;;11.40;99.90;;;;;;6323009;22;20010;-80
2022/03/14 11:55:55;;;;;;;0.10;0.10;;;11.50;99.90;;;;;;6348772;22;20323;-67
2022/03/14 11:58:53;;;;;;;0.57;0.57;;;11.60;99.90;;;;;;6320327;22;19998;-70
2022/03/14 12:01:27;;;;;;;0.40;0.40;;;11.60;99.90;;;;;;6310891;22;20010;-71
2022/03/14 12:03:58;;;;;;;0.52;0.52;;;11.80;99.90;;;;;;6337700;22;20006;-70
2022/03/14 12:06:46;;;;;;;;;;;11.80;99.90;;;;;;6337936;22;20003;-70
2022/03/14 12:09:24;;;;;;;0.00;0.00;;;11.80;99.90;;;;;;6338351;22;20178;-70
2022/03/14 12:11:54;;;;;;;0.03;0.03;;;11.90;99.90;;;;;;6337332;22;20056;-71
2022/03/14 12:14:43;;;;;;;0.00;0.00;;;11.90;99.90;;;;;;6337428;22;20009;-71
2022/03/14 12:17:15;;;;;;;0.00;0.00;;;11.80;99.90;;;;;;6347994;22;20056;-71
2022/03/14 12:19:44;;;;;;;11.38;1.10;;;11.80;99.90;;;;;;6337503;22;20518;-71
2022/03/14 12:22:39;;;;;;;0.00;0.00;;;11.90;99.90;;;;;;6337197;22;20021;-70
2022/03/14 12:25:08;;;;;;;0.00;0.00;;;12.20;99.90;;;;;;6347744;22;20003;-70
2022/03/14 12:27:37;;;;;;;0.15;0.15;;;12.40;99.90;;;;;;6337337;22;20011;-71
2022/03/14 12:30:32;;;;;;;0.10;0.10;;;12.30;99.90;;;;;;6284426;22;20010;-70
2022/03/14 12:33:03;;;;;;;0.00;0.00;;;12.40;99.90;;;;;;6347564;22;20002;-70
2022/03/14 12:35:33;;;;;;;0.00;0.00;;;12.70;99.90;;;;;;6347562;22;20030;-70
2022/03/14 12:38:21;;;;;;;0.33;0.33;;;13.00;99.90;;;;;;6309693;22;20010;-71
2022/03/14 12:40:49;;;;;;;0.00;0.00;;;13.20;99.90;;;;;;6337281;22;20385;-70
2022/03/14 12:43:28;;;;;;;0.00;0.00;;;13.00;99.90;;;;;;6347729;22;20007;-70
2022/03/14 12:45:58;;;;;;;1.48;1.38;;;13.00;99.90;;;;;;6320800;22;20461;-70
2022/03/14 12:48:30;;;;;;;0.00;0.00;;;12.90;99.90;;;;;;6310346;22;19999;-70
2022/03/14 12:51:07;;;;;;;0.00;0.00;;;12.80;99.90;;;;;;6347459;22;19999;-71
2022/03/14 12:53:43;;;;;;;0.00;0.00;;;12.70;99.90;;;;;;6337152;22;20106;-70
2022/03/14 12:56:22;;;;;;;0.90;0.70;;;12.50;99.90;;;;;;6309247;22;20493;-71
2022/03/14 12:59:15;;;;;;;0.00;0.00;;;12.40;99.90;;;;;;6346998;22;20010;-70
2022/03/14 13:01:41;;;;;;;1.75;1.30;;;12.40;99.90;;;;;;6335964;22;20013;-70
2022/03/14 13:04:17;;;;;;;2.83;1.95;;;12.50;99.60;;;;;;6337012;22;20002;-72
2022/03/14 13:06:48;;;;;;;0.00;0.00;;;12.60;99.30;;;;;;6284152;22;20455;-71
2022/03/14 13:09:28;;;;;;;0.05;0.05;;;12.70;98.50;;;;;;6337619;22;20038;-70
2022/03/14 13:11:59;;;;;;;0.63;0.43;;;12.70;98.20;;;;;;6347020;22;20011;-70
2022/03/14 13:14:26;;;;;;;0.38;0.38;;;12.70;98.00;;;;;;6347189;22;20022;-71
2022/03/14 13:16:54;;;;;;;0.00;0.00;;;12.50;98.30;;;;;;6346757;22;20007;-70
2022/03/14 13:19:24;;;;;;;0.00;0.00;;;12.50;98.80;;;;;;6336238;22;20011;-71
2022/03/14 13:21:49;;;;;;;0.00;0.00;;;12.80;98.40;;;;;;6346008;22;20673;-71
2022/03/14 13:24:16;;;;;;;0.03;0.03;;;12.80;98.30;;;;;;6337178;22;20089;-70
2022/03/14 13:26:46;;;;;;;0.00;0.00;;;13.00;98.70;;;;;;6347005;22;20009;-71
2022/03/14 13:29:12;;;;;;;0.00;0.00;;;13.40;97.80;;;;;;6320106;22;20343;-71
2022/03/14 13:31:44;;;;;;;0.10;0.10;;;14.00;96.00;;;;;;6346987;22;20006;-70
2022/03/14 13:34:13;;;;;;;0.00;0.00;;;14.10;96.20;;;;;;6337332;22;20005;-70
2022/03/14 13:36:43;;;;;;;0.00;0.00;;;13.90;95.60;;;;;;6337066;22;20007;-71
2022/03/14 13:39:15;;;;;;;0.10;0.10;;;13.60;95.70;;;;;;6310143;22;20454;-74
2022/03/14 13:41:43;;;;;;;0.00;0.00;;;13.30;95.90;;;;;;6336808;22;20010;-72
2022/03/14 13:44:18;;;;;;;0.00;0.00;;;13.30;95.60;;;;;;6337340;22;20472;-72
2022/03/14 13:46:50;;;;;;;0.00;0.00;;;13.60;95.20;;;;;;6336917;22;20087;-71
2022/03/14 13:49:28;;;;;;;0.00;0.00;;;14.00;95.00;;;;;;6320553;22;20440;-72